Time;durP1;ratioP1;P1;durP2;ratioP2;P2;SDS_P1;SDS_P2;PMS_P1;PMS_P2;Temp;Humidity;BMP_temperature;BMP_pressure;BME280_temperature;BME280_humidity;BME280_pressure;Samples;Min_cycle;Max_cycle;Signal;HPM_P1;HPM_P2
2023/10/29 00:00:21;;;;;;;1.50;1.00;;;;;;;12.21;100.00;99026.66;4987736;28;20542;-70
2023/10/29 00:02:46;;;;;;;2.92;1.17;;;;;;;12.22;100.00;99015.59;4987805;28;20093;-70
2023/10/29 00:05:12;;;;;;;3.40;1.00;;;;;;;12.25;100.00;99026.16;4987891;28;20486;-69
2023/10/29 00:07:37;;;;;;;2.60;1.20;;;;;;;12.28;100.00;99014.09;4986946;28;20084;-70
2023/10/29 00:10:03;;;;;;;2.95;1.20;;;;;;;12.28;100.00;99015.97;4986808;28;20368;-73
2023/10/29 00:12:29;;;;;;;3.63;1.20;;;;;;;12.32;100.00;99010.00;4987979;28;20544;-70
2023/10/29 00:14:54;;;;;;;3.22;1.20;;;;;;;12.35;100.00;99003.34;4988374;28;20092;-70
2023/10/29 00:17:19;;;;;;;3.13;1.25;;;;;;;12.36;100.00;98984.09;4990524;28;20091;-70
2023/10/29 00:19:45;;;;;;;2.50;1.27;;;;;;;12.35;100.00;98987.84;4999874;28;20034;-69
2023/10/29 00:22:11;;;;;;;2.53;1.10;;;;;;;12.35;100.00;98967.91;5006146;28;20505;-70
2023/10/29 00:24:36;;;;;;;2.15;1.15;;;;;;;12.35;100.00;98959.72;5000391;28;20034;-73
2023/10/29 00:27:02;;;;;;;3.08;1.52;;;;;;;12.34;100.00;98953.41;4987978;28;20105;-69
2023/10/29 00:29:27;;;;;;;1.95;1.10;;;;;;;12.33;100.00;98942.69;4989363;28;20061;-70
2023/10/29 00:31:53;;;;;;;1.52;1.30;;;;;;;12.32;100.00;98943.72;5006245;28;20084;-69
2023/10/29 00:34:18;;;;;;;1.90;1.27;;;;;;;12.30;100.00;98938.41;4993466;28;20076;-73
2023/10/29 00:36:44;;;;;;;2.65;1.23;;;;;;;12.32;100.00;98954.63;4997713;28;20451;-71
2023/10/29 00:39:09;;;;;;;8.57;1.33;;;;;;;12.32;100.00;98949.16;5005663;28;20038;-70
2023/10/29 00:41:35;;;;;;;3.13;1.08;;;;;;;12.34;100.00;98939.78;5006771;28;20101;-69
2023/10/29 00:44:00;;;;;;;1.83;1.00;;;;;;;12.37;100.00;98964.00;5001644;28;20022;-70
2023/10/29 00:46:26;;;;;;;4.30;1.15;;;;;;;12.39;100.00;98955.63;4986459;28;20030;-69
2023/10/29 00:48:51;;;;;;;1.17;1.00;;;;;;;12.38;100.00;98954.78;4987872;28;20374;-69
2023/10/29 00:51:18;;;;;;;5.85;1.33;;;;;;;12.41;100.00;98950.88;4993878;28;20030;-72
2023/10/29 00:53:44;;;;;;;2.70;0.90;;;;;;;12.44;100.00;98948.63;4987199;28;20034;-69
2023/10/29 00:56:11;;;;;;;3.28;1.10;;;;;;;12.47;100.00;98961.94;4987397;28;20504;-69
2023/10/29 00:58:37;;;;;;;2.95;1.10;;;;;;;12.49;100.00;98948.97;4987329;28;20452;-70
2023/10/29 01:01:03;;;;;;;5.57;1.10;;;;;;;12.51;100.00;98930.59;4987394;28;20110;-69
2023/10/29 01:03:28;;;;;;;3.92;1.02;;;;;;;12.57;100.00;98944.56;4987554;28;20111;-71
2023/10/29 01:05:55;;;;;;;2.95;1.10;;;;;;;12.61;100.00;98937.75;4986527;28;20042;-70
2023/10/29 01:08:20;;;;;;;4.05;1.10;;;;;;;12.66;100.00;98902.63;5018245;28;20061;-71
2023/10/29 01:10:46;;;;;;;3.72;1.20;;;;;;;12.71;100.00;98932.97;4987226;28;20038;-70
2023/10/29 01:13:11;;;;;;;3.50;1.13;;;;;;;12.76;100.00;98916.91;4987357;28;20034;-69
2023/10/29 01:15:36;;;;;;;3.47;1.10;;;;;;;12.80;100.00;98917.44;5018846;28;20129;-69
2023/10/29 01:18:02;;;;;;;4.10;0.98;;;;;;;12.81;100.00;98914.53;4985730;28;20026;-71
2023/10/29 01:20:27;;;;;;;1.58;0.93;;;;;;;12.80;100.00;98909.25;4988370;28;20041;-70
2023/10/29 01:22:53;;;;;;;2.20;0.93;;;;;;;12.77;100.00;98904.97;5003760;28;20033;-72
2023/10/29 01:25:18;;;;;;;2.55;1.08;;;;;;;12.75;100.00;98898.84;4990987;28;20034;-69
2023/10/29 01:27:44;;;;;;;4.00;1.50;;;;;;;12.77;100.00;98907.69;5006005;28;20057;-69
2023/10/29 01:30:10;;;;;;;3.95;0.93;;;;;;;12.76;100.00;98912.31;4990910;28;20145;-70
2023/10/29 01:32:36;;;;;;;1.25;1.02;;;;;;;12.74;100.00;98917.09;4990614;28;20367;-69
2023/10/29 01:35:02;;;;;;;2.72;1.05;;;;;;;12.77;100.00;98911.28;4989940;28;20122;-70
2023/10/29 01:37:27;;;;;;;2.42;0.90;;;;;;;12.76;100.00;98911.47;5005281;28;20035;-70
2023/10/29 01:39:53;;;;;;;3.42;0.93;;;;;;;12.72;100.00;98889.13;4990718;28;20045;-69
2023/10/29 01:42:18;;;;;;;2.20;1.05;;;;;;;12.70;100.00;98902.09;4990207;28;20049;-70
2023/10/29 01:44:43;;;;;;;2.42;1.02;;;;;;;12.67;100.00;98894.25;4990547;28;20065;-71
2023/10/29 01:47:09;;;;;;;4.82;1.20;;;;;;;12.68;100.00;98878.72;5005388;28;20117;-70
2023/10/29 01:49:34;;;;;;;1.70;0.90;;;;;;;12.68;100.00;98873.28;4989599;28;20117;-70
2023/10/29 01:52:00;;;;;;;3.03;1.15;;;;;;;12.67;100.00;98882.47;5001476;28;20253;-70
2023/10/29 01:54:25;;;;;;;2.50;1.10;;;;;;;12.66;100.00;98876.19;5022435;28;20065;-69
2023/10/29 01:56:50;;;;;;;2.15;1.00;;;;;;;12.66;100.00;98887.09;4972552;28;20026;-70
2023/10/29 01:59:16;;;;;;;4.53;1.30;;;;;;;12.64;100.00;98889.16;4972694;28;20045;-69
2023/10/29 02:01:42;;;;;;;3.53;1.08;;;;;;;12.61;100.00;98885.91;4988417;28;20470;-70
2023/10/29 02:04:08;;;;;;;0.90;0.90;;;;;;;12.60;100.00;98895.97;4989309;28;20030;-70
2023/10/29 02:06:38;;;;;;;4.88;1.20;;;;;;;12.60;100.00;98903.31;5020519;28;20627;-70
2023/10/29 02:09:05;;;;;;;3.95;1.20;;;;;;;12.60;100.00;98897.84;5021356;28;20483;-70
2023/10/29 02:11:30;;;;;;;5.60;1.30;;;;;;;12.60;100.00;98897.84;4990023;28;20136;-70
2023/10/29 02:13:55;;;;;;;3.70;1.00;;;;;;;12.62;100.00;98893.06;4989652;28;20062;-70
2023/10/29 02:16:21;;;;;;;3.22;1.02;;;;;;;12.62;100.00;98893.91;5009459;28;20109;-70
2023/10/29 02:18:46;;;;;;;2.58;1.15;;;;;;;12.62;100.00;98880.28;5002441;28;20034;-70
2023/10/29 02:21:11;;;;;;;2.58;1.00;;;;;;;12.60;100.00;98895.13;4998786;28;20080;-70
2023/10/29 02:23:37;;;;;;;1.58;1.00;;;;;;;12.60;100.00;98881.50;4989105;28;20049;-69
2023/10/29 02:26:02;;;;;;;3.20;1.02;;;;;;;12.62;100.00;98876.69;4989830;28;20445;-71
2023/10/29 02:28:28;;;;;;;2.58;1.25;;;;;;;12.61;100.00;98883.19;4990157;28;20062;-70
2023/10/29 02:30:53;;;;;;;4.63;1.13;;;;;;;12.62;100.00;98879.44;4988929;28;20043;-72
2023/10/29 02:33:19;;;;;;;1.55;0.80;;;;;;;12.57;100.00;98888.13;5022016;28;20392;-70
2023/10/29 02:35:46;;;;;;;1.75;1.02;;;;;;;12.55;100.00;98890.19;5001191;28;20037;-70
2023/10/29 02:38:14;;;;;;;2.40;0.95;;;;;;;12.55;100.00;98886.63;5006604;28;20076;-71
2023/10/29 02:40:40;;;;;;;2.50;1.15;;;;;;;12.55;100.00;98887.47;5017033;28;20042;-70
2023/10/29 02:43:06;;;;;;;3.92;1.00;;;;;;;12.58;100.00;98880.78;4989328;28;20109;-70
2023/10/29 02:45:31;;;;;;;0.90;0.70;;;;;;;12.56;100.00;98877.41;5020383;28;20048;-71
2023/10/29 02:47:57;;;;;;;1.83;0.95;;;;;;;12.59;100.00;98880.63;4988391;28;20561;-70
2023/10/29 02:50:22;;;;;;;1.50;0.98;;;;;;;12.66;100.00;98876.19;4990606;28;20033;-70
2023/10/29 02:52:48;;;;;;;4.00;1.10;;;;;;;12.67;100.00;98883.34;5008622;28;20057;-70
2023/10/29 02:55:13;;;;;;;2.10;1.00;;;;;;;12.67;100.00;98877.88;5021609;28;20036;-72
2023/10/29 02:57:38;;;;;;;1.38;1.00;;;;;;;12.68;100.00;98884.19;4988895;28;20574;-69
2023/10/29 03:00:04;;;;;;;3.25;0.80;;;;;;;12.67;100.00;98875.16;4988817;28;20034;-70
2023/10/29 03:02:30;;;;;;;2.28;1.00;;;;;;;12.73;100.00;98877.22;5020152;28;20045;-71
2023/10/29 03:04:55;;;;;;;1.55;0.98;;;;;;;12.73;100.00;98866.28;5004055;28;20042;-70
2023/10/29 03:07:21;;;;;;;2.70;1.00;;;;;;;12.77;100.00;98869.50;5019267;28;20050;-70
2023/10/29 03:09:46;;;;;;;1.52;0.70;;;;;;;12.78;100.00;98871.22;4988921;28;20078;-70
2023/10/29 03:12:12;;;;;;;3.15;0.90;;;;;;;12.78;100.00;98871.22;5006875;28;20045;-73
2023/10/29 03:14:37;;;;;;;4.60;0.80;;;;;;;12.82;100.00;98860.78;5007002;28;20504;-70
2023/10/29 03:17:03;;;;;;;1.73;0.70;;;;;;;12.83;100.00;98865.25;5008270;28;20440;-70
2023/10/29 03:19:28;;;;;;;1.73;0.90;;;;;;;12.89;100.00;98870.00;4996319;28;20041;-71
2023/10/29 03:21:54;;;;;;;1.80;0.60;;;;;;;12.92;100.00;98878.69;4987536;28;20564;-70
2023/10/29 03:24:19;;;;;;;3.67;0.90;;;;;;;12.95;100.00;98872.03;4993847;28;20211;-69
2023/10/29 03:26:44;;;;;;;3.60;0.88;;;;;;;12.97;100.00;98879.03;5006608;28;20038;-71
2023/10/29 03:29:10;;;;;;;1.20;0.80;;;;;;;12.97;100.00;98880.91;5008026;28;20032;-70
2023/10/29 03:31:37;;;;;;;1.15;0.70;;;;;;;12.94;100.00;98879.34;5000192;28;20034;-70
2023/10/29 03:34:03;;;;;;;2.92;0.80;;;;;;;12.95;100.00;98891.97;4997264;28;20033;-71
2023/10/29 03:36:28;;;;;;;1.85;0.77;;;;;;;12.94;100.00;98887.53;5019188;28;20038;-72
2023/10/29 03:38:54;;;;;;;1.00;0.63;;;;;;;12.97;100.00;98889.09;5020070;28;20030;-71
2023/10/29 03:41:23;;;;;;;1.45;0.82;;;;;;;12.95;100.00;98894.69;4987716;28;20125;-70
2023/10/29 03:43:49;;;;;;;1.23;0.75;;;;;;;12.92;100.00;98895.06;5019367;28;20031;-72
2023/10/29 03:46:15;;;;;;;5.28;0.90;;;;;;;12.92;100.00;98892.34;5006407;28;20046;-70
2023/10/29 03:48:44;;;;;;;1.23;0.80;;;;;;;12.91;100.00;98885.16;5002085;28;20093;-70
2023/10/29 03:51:12;;;;;;;3.28;0.85;;;;;;;12.89;100.00;98880.91;5019040;28;20498;-70
2023/10/29 03:53:37;;;;;;;1.27;0.60;;;;;;;12.88;100.00;98879.22;4985911;28;20026;-70
2023/10/29 03:56:03;;;;;;;1.50;0.93;;;;;;;12.81;100.00;98878.19;4987814;28;20509;-71
2023/10/29 03:58:30;;;;;;;2.13;0.73;;;;;;;12.77;100.00;98883.16;4998719;28;20026;-71
2023/10/29 04:00:57;;;;;;;1.50;0.77;;;;;;;12.70;100.00;98880.28;5006613;28;20038;-70
2023/10/29 04:03:22;;;;;;;1.73;0.80;;;;;;;12.63;100.00;98875.66;5004572;28;20545;-70
2023/10/29 04:05:48;;;;;;;3.47;0.85;;;;;;;12.58;100.00;98869.88;5002360;28;20033;-71
2023/10/29 04:08:13;;;;;;;0.90;0.80;;;;;;;12.58;100.00;98864.44;5005305;28;20069;-70
2023/10/29 04:10:39;;;;;;;2.67;0.90;;;;;;;12.60;100.00;98879.59;5005744;28;20405;-70
2023/10/29 04:13:04;;;;;;;3.03;0.80;;;;;;;12.61;100.00;98883.19;5005980;28;20064;-70
2023/10/29 04:15:29;;;;;;;1.17;0.65;;;;;;;12.60;100.00;98878.75;5006986;28;20045;-74
2023/10/29 04:17:55;;;;;;;1.85;0.93;;;;;;;12.62;100.00;98882.16;4988172;28;20339;-70
2023/10/29 04:20:20;;;;;;;0.75;0.65;;;;;;;12.64;100.00;98894.63;4991798;28;20034;-70
2023/10/29 04:22:46;;;;;;;5.10;1.33;;;;;;;12.65;100.00;98898.19;4986818;28;20037;-70
2023/10/29 04:25:12;;;;;;;6.38;1.17;;;;;;;12.74;100.00;98902.63;4987898;28;20057;-70
2023/10/29 04:27:37;;;;;;;1.13;0.80;;;;;;;12.72;100.00;98900.03;4987450;28;20031;-70
2023/10/29 04:30:03;;;;;;;3.53;1.13;;;;;;;12.74;100.00;98910.78;4987121;28;20042;-71
2023/10/29 04:32:28;;;;;;;1.75;1.00;;;;;;;12.76;100.00;98908.72;4987807;28;20026;-73
2023/10/29 04:34:54;;;;;;;3.58;0.90;;;;;;;12.75;100.00;98910.63;4989230;28;20387;-71
2023/10/29 04:37:20;;;;;;;4.75;1.10;;;;;;;12.71;100.00;98892.88;4986607;28;20081;-71
2023/10/29 04:39:46;;;;;;;4.00;1.30;;;;;;;12.74;100.00;98891.69;4987451;28;20042;-71
2023/10/29 04:42:11;;;;;;;3.72;0.93;;;;;;;12.75;100.00;98904.31;4987440;28;20545;-71
2023/10/29 04:44:36;;;;;;;2.20;0.90;;;;;;;12.76;100.00;98898.66;4987459;28;20034;-70
2023/10/29 04:47:03;;;;;;;1.33;0.80;;;;;;;12.73;100.00;98892.72;4987095;28;20075;-70
2023/10/29 04:49:29;;;;;;;0.85;0.70;;;;;;;12.79;100.00;98902.94;4987211;28;20101;-70
2023/10/29 04:51:55;;;;;;;2.50;1.10;;;;;;;12.82;100.00;98907.19;4986983;28;20121;-70
2023/10/29 04:54:20;;;;;;;1.58;0.85;;;;;;;12.81;100.00;98910.94;5018577;28;20129;-71
2023/10/29 04:56:45;;;;;;;5.25;0.80;;;;;;;12.79;100.00;98913.84;4987759;28;20046;-71
2023/10/29 04:59:11;;;;;;;5.60;1.20;;;;;;;12.79;100.00;98900.22;4989756;28;20158;-70
2023/10/29 05:01:36;;;;;;;1.80;0.93;;;;;;;12.81;100.00;98908.22;4991088;28;20052;-70
2023/10/29 05:04:02;;;;;;;3.53;0.90;;;;;;;12.76;100.00;98898.66;4989496;28;20065;-71
2023/10/29 05:06:27;;;;;;;1.20;0.77;;;;;;;12.77;100.00;98910.44;4990765;28;20046;-70
2023/10/29 05:08:53;;;;;;;3.55;0.90;;;;;;;12.74;100.00;98924.44;5022792;28;20053;-70
2023/10/29 05:11:19;;;;;;;1.98;0.90;;;;;;;12.72;100.00;98926.47;5022321;28;20046;-70
2023/10/29 05:13:44;;;;;;;4.13;1.10;;;;;;;12.70;100.00;98931.25;4990867;28;20348;-71
2023/10/29 05:16:10;;;;;;;3.05;0.80;;;;;;;12.67;100.00;98948.81;4990030;28;20506;-70
2023/10/29 05:18:37;;;;;;;4.40;1.20;;;;;;;12.62;100.00;98962.13;4991063;28;20486;-71
2023/10/29 05:21:03;;;;;;;2.35;0.80;;;;;;;12.57;100.00;98958.19;4990678;28;20482;-70
2023/10/29 05:23:29;;;;;;;3.63;1.20;;;;;;;12.50;100.00;98964.34;4991098;28;20173;-70
2023/10/29 05:25:54;;;;;;;3.60;0.77;;;;;;;12.44;100.00;98961.44;4991296;28;20130;-71
2023/10/29 05:28:21;;;;;;;5.45;0.90;;;;;;;12.39;100.00;98958.34;4990918;28;20054;-71
2023/10/29 05:30:47;;;;;;;3.72;1.05;;;;;;;12.29;100.00;98961.25;4991012;28;20038;-70
2023/10/29 05:33:12;;;;;;;3.35;0.80;;;;;;;12.23;100.00;98953.75;5003480;28;20053;-71
2023/10/29 05:35:37;;;;;;;4.95;1.13;;;;;;;12.16;100.00;98942.66;4990154;28;20112;-71
2023/10/29 05:38:04;;;;;;;1.45;0.80;;;;;;;12.07;100.00;98957.28;4990193;28;20049;-71
2023/10/29 05:40:29;;;;;;;3.72;1.00;;;;;;;11.97;100.00;98957.44;4990697;28;20494;-73
2023/10/29 05:42:54;;;;;;;1.38;0.73;;;;;;;11.88;100.00;98960.31;4991301;28;20046;-71
2023/10/29 05:45:20;;;;;;;1.00;0.60;;;;;;;11.75;100.00;98986.13;4989348;28;20034;-72
2023/10/29 05:47:45;;;;;;;2.22;0.88;;;;;;;11.67;100.00;98979.78;4997122;28;20038;-74
2023/10/29 05:50:10;;;;;;;1.83;0.50;;;;;;;11.61;100.00;98991.31;5023757;28;20053;-71
2023/10/29 05:52:36;;;;;;;5.35;0.70;;;;;;;11.57;100.00;98995.41;4989546;28;20109;-72
2023/10/29 05:55:02;;;;;;;5.55;0.85;;;;;;;11.51;100.00;98996.91;4990438;28;20046;-71
2023/10/29 05:57:28;;;;;;;2.55;0.90;;;;;;;11.48;100.00;99005.41;4990676;28;20042;-70
2023/10/29 05:59:54;;;;;;;2.85;0.80;;;;;;;11.44;100.00;99009.47;4990247;28;20049;-70
2023/10/29 06:02:19;;;;;;;1.25;0.73;;;;;;;11.40;100.00;99019.81;4988785;28;20483;-72
2023/10/29 06:04:44;;;;;;;5.38;1.13;;;;;;;11.36;100.00;99017.59;4988254;28;20387;-70
2023/10/29 06:07:10;;;;;;;7.95;2.25;;;;;;;11.36;100.00;99036.66;4989209;28;20213;-70
2023/10/29 06:09:35;;;;;;;3.40;0.90;;;;;;;11.35;100.00;99032.22;5021209;28;20030;-70
2023/10/29 06:12:01;;;;;;;4.65;0.95;;;;;;;11.33;100.00;99036.94;4989778;28;20034;-71
2023/10/29 06:14:26;;;;;;;2.53;0.77;;;;;;;11.31;100.00;99039.00;4990528;28;20033;-70
2023/10/29 06:16:56;;;;;;;7.90;0.93;;;;;;;11.30;100.00;99053.63;4989687;28;20108;-70
2023/10/29 06:19:25;;;;;;;3.10;1.00;;;;;;;11.30;100.00;99045.47;4989031;28;20490;-71
2023/10/29 06:21:51;;;;;;;4.97;1.20;;;;;;;11.31;100.00;99058.06;5020078;28;20100;-70
2023/10/29 06:24:16;;;;;;;6.63;1.48;;;;;;;11.30;100.00;99064.53;4989316;28;20081;-70
2023/10/29 06:26:42;;;;;;;4.38;1.30;;;;;;;11.29;100.00;99066.41;4989166;28;20525;-70
2023/10/29 06:29:08;;;;;;;4.63;1.30;;;;;;;11.26;100.00;99061.25;4989242;28;20038;-70
2023/10/29 06:31:34;;;;;;;4.95;1.08;;;;;;;11.26;100.00;99069.41;5007190;28;20034;-72
2023/10/29 06:34:01;;;;;;;7.95;1.80;;;;;;;11.27;100.00;99075.72;5032580;28;20053;-71
2023/10/29 06:36:27;;;;;;;4.18;1.20;;;;;;;11.27;100.00;99078.44;4994915;28;20046;-70
2023/10/29 06:38:52;;;;;;;6.53;1.10;;;;;;;11.27;100.00;99075.72;5008649;28;20458;-71
2023/10/29 06:41:18;;;;;;;5.20;1.05;;;;;;;11.27;100.00;99081.16;4996206;28;20034;-74
2023/10/29 06:43:43;;;;;;;11.52;1.65;;;;;;;11.25;100.00;99086.78;5000979;28;20018;-71
2023/10/29 06:46:08;;;;;;;4.35;1.17;;;;;;;11.22;100.00;99090.66;4995397;28;20037;-71
2023/10/29 06:48:36;;;;;;;6.45;0.95;;;;;;;11.20;100.00;99081.81;4991107;28;20037;-71
2023/10/29 06:51:03;;;;;;;3.65;1.02;;;;;;;11.19;100.00;99095.56;4994333;28;20832;-70
2023/10/29 06:53:28;;;;;;;3.60;1.05;;;;;;;11.18;100.00;99100.16;5007299;28;20100;-70
2023/10/29 06:55:53;;;;;;;8.02;1.40;;;;;;;11.22;100.00;99111.56;4999197;28;20474;-71
2023/10/29 06:58:19;;;;;;;7.70;1.77;;;;;;;11.19;100.00;99099.16;5004163;28;20547;-70
2023/10/29 07:00:44;;;;;;;6.95;1.35;;;;;;;11.20;100.00;99111.75;5007929;28;20505;-71
2023/10/29 07:03:09;;;;;;;4.97;1.42;;;;;;;11.19;100.00;99112.78;4990544;28;20482;-72
2023/10/29 07:05:35;;;;;;;15.27;1.88;;;;;;;11.19;100.00;99126.38;4993531;28;20038;-70
2023/10/29 07:08:00;;;;;;;5.60;1.30;;;;;;;11.17;100.00;99122.94;4991045;28;20204;-71
2023/10/29 07:10:26;;;;;;;10.73;1.27;;;;;;;11.16;100.00;99134.00;5008205;28;20057;-71
2023/10/29 07:12:53;;;;;;;4.22;1.13;;;;;;;11.16;100.00;99137.56;5005221;28;20088;-71
2023/10/29 07:15:19;;;;;;;7.38;2.15;;;;;;;11.15;100.00;99148.63;5010676;28;20376;-70
2023/10/29 07:17:45;;;;;;;5.18;1.20;;;;;;;11.16;100.00;99153.91;5039063;28;20052;-71
2023/10/29 07:20:11;;;;;;;7.28;1.30;;;;;;;11.16;100.00;99156.63;4991790;28;20038;-71
2023/10/29 07:22:37;;;;;;;9.50;1.90;;;;;;;11.19;100.00;99160.88;4990393;28;20057;-71
2023/10/29 07:25:03;;;;;;;6.05;1.73;;;;;;;11.23;100.00;99140.50;5001302;28;20175;-71
2023/10/29 07:27:29;;;;;;;7.97;1.40;;;;;;;11.26;100.00;99159.25;4998669;28;20038;-70
2023/10/29 07:29:54;;;;;;;10.48;1.42;;;;;;;11.28;100.00;99168.09;4988793;28;20403;-70
2023/10/29 07:32:19;;;;;;;6.10;2.38;;;;;;;11.30;100.00;99173.41;4993391;28;20044;-70
2023/10/29 07:34:45;;;;;;;8.52;1.52;;;;;;;11.36;100.00;99178.22;4987653;28;20059;-71
2023/10/29 07:37:12;;;;;;;9.60;1.50;;;;;;;11.42;100.00;99183.91;4987231;28;20038;-71
2023/10/29 07:39:37;;;;;;;4.90;1.50;;;;;;;11.47;100.00;99175.25;4988289;28;20459;-70
2023/10/29 07:42:03;;;;;;;6.57;1.65;;;;;;;11.49;100.00;99179.53;4987898;28;20045;-70
2023/10/29 07:44:28;;;;;;;7.25;1.75;;;;;;;11.50;100.00;99177.66;4988748;28;20554;-71
2023/10/29 07:46:54;;;;;;;12.68;2.42;;;;;;;11.55;100.00;99185.34;4986546;28;20042;-70
2023/10/29 07:49:20;;;;;;;12.15;2.50;;;;;;;11.58;100.00;99194.06;4987871;28;20428;-70
2023/10/29 07:51:47;;;;;;;5.30;1.75;;;;;;;11.67;100.00;99197.72;5018520;28;20041;-71
2023/10/29 07:54:13;;;;;;;8.70;1.75;;;;;;;11.73;100.00;99192.47;4987982;28;20026;-70
2023/10/29 07:56:38;;;;;;;11.65;1.70;;;;;;;11.79;100.00;99190.13;4987742;28;20041;-70
2023/10/29 07:59:03;;;;;;;7.22;1.50;;;;;;;11.82;100.00;99192.53;4997021;28;20108;-70
2023/10/29 08:01:31;;;;;;;9.88;1.70;;;;;;;11.87;100.00;99196.53;5037006;28;20042;-72
2023/10/29 08:03:57;;;;;;;13.23;1.80;;;;;;;11.92;100.00;99191.44;4987046;28;20030;-71
2023/10/29 08:06:23;;;;;;;6.80;1.58;;;;;;;11.97;100.00;99202.72;5005801;28;20249;-72
2023/10/29 08:08:48;;;;;;;10.30;2.05;;;;;;;12.07;100.00;99193.56;4994944;28;20513;-71
2023/10/29 08:11:20;;;;;;;5.90;1.70;;;;;;;12.14;100.00;99197.38;5004336;28;20017;-72
2023/10/29 08:13:46;;;;;;;8.07;1.60;;;;;;;12.21;100.00;99218.34;5003024;28;20065;-73
2023/10/29 08:16:12;;;;;;;7.18;1.30;;;;;;;12.30;100.00;99207.50;5004826;28;20034;-70
2023/10/29 08:18:38;;;;;;;7.57;1.40;;;;;;;12.39;100.00;99214.72;4996233;28;20129;-70
2023/10/29 08:21:03;;;;;;;9.18;1.33;;;;;;;12.49;100.00;99209.97;5000712;28;20515;-70
2023/10/29 08:23:29;;;;;;;8.63;1.70;;;;;;;12.57;98.90;99226.38;4998941;28;20042;-72
2023/10/29 08:25:55;;;;;;;9.25;1.65;;;;;;;12.60;98.58;99236.97;5001254;28;20548;-70
2023/10/29 08:28:20;;;;;;;6.45;1.77;;;;;;;12.61;98.58;99237.84;4998760;28;20449;-72
2023/10/29 08:30:48;;;;;;;9.07;1.60;;;;;;;12.60;98.54;99236.97;5006985;28;20096;-72
2023/10/29 08:33:14;;;;;;;5.72;1.50;;;;;;;12.63;98.60;99233.06;5040261;28;20265;-73
2023/10/29 08:35:46;;;;;;;8.75;1.50;;;;;;;12.64;97.55;99235.66;4998229;28;20528;-70
2023/10/29 08:38:11;;;;;;;8.63;1.67;;;;;;;12.66;97.01;99230.88;5008516;28;20091;-73
2023/10/29 08:40:37;;;;;;;8.73;1.52;;;;;;;12.79;95.78;99254.13;5030522;28;20449;-71
2023/10/29 08:43:06;;;;;;;7.18;1.50;;;;;;;12.85;96.94;99235.19;5008564;28;20026;-71
2023/10/29 08:45:31;;;;;;;12.98;1.55;;;;;;;12.93;96.65;99246.16;5006929;28;20049;-72
2023/10/29 08:47:57;;;;;;;6.47;1.67;;;;;;;13.00;96.50;99255.38;5008234;28;20026;-71
2023/10/29 08:50:22;;;;;;;5.47;1.08;;;;;;;13.05;95.72;99267.66;4993951;28;20066;-71
2023/10/29 08:52:47;;;;;;;5.00;1.13;;;;;;;13.08;91.81;99261.88;4989571;28;20494;-70
2023/10/29 08:55:13;;;;;;;5.32;1.33;;;;;;;13.09;92.35;99274.50;4989167;28;20092;-71
2023/10/29 08:57:38;;;;;;;7.32;1.10;;;;;;;13.14;93.37;99275.72;5009771;28;20041;-70
2023/10/29 09:00:04;;;;;;;8.63;1.65;;;;;;;13.21;91.27;99281.38;5004074;28;20085;-70
2023/10/29 09:02:30;;;;;;;6.22;1.20;;;;;;;13.26;92.91;99282.63;5006100;28;20045;-73
2023/10/29 09:04:57;;;;;;;4.88;1.05;;;;;;;13.32;89.83;99294.75;4995549;28;20042;-71
2023/10/29 09:07:25;;;;;;;6.93;1.52;;;;;;;13.44;91.75;99306.22;4996140;28;20047;-71
2023/10/29 09:09:52;;;;;;;5.20;1.10;;;;;;;13.51;90.35;99313.56;5009902;28;20053;-71
2023/10/29 09:12:19;;;;;;;10.27;1.52;;;;;;;13.62;90.27;99315.16;5003725;28;20461;-72
2023/10/29 09:14:44;;;;;;;10.80;0.98;;;;;;;13.68;88.30;99313.63;4996785;28;20116;-73
2023/10/29 09:17:10;;;;;;;9.93;1.40;;;;;;;13.65;86.95;99311.22;5009645;28;20482;-74
2023/10/29 09:19:35;;;;;;;6.47;1.40;;;;;;;13.55;86.49;99319.56;4997321;28;20034;-72
2023/10/29 09:22:01;;;;;;;7.07;1.30;;;;;;;13.47;87.41;99325.00;4996934;28;20038;-70
2023/10/29 09:24:26;;;;;;;13.90;1.52;;;;;;;13.38;87.40;99339.66;4985922;28;20070;-72
2023/10/29 09:26:53;;;;;;;8.13;1.23;;;;;;;13.30;86.52;99331.47;5007475;28;20049;-70
2023/10/29 09:29:19;;;;;;;6.95;1.23;;;;;;;13.33;88.45;99322.91;5008251;28;20037;-71
2023/10/29 09:31:44;;;;;;;5.90;1.52;;;;;;;13.41;88.80;99329.25;5000873;28;20402;-71
2023/10/29 09:34:10;;;;;;;6.93;1.20;;;;;;;13.56;89.50;99326.72;4992942;28;20042;-73
2023/10/29 09:36:35;;;;;;;10.10;1.52;;;;;;;13.72;86.51;99317.72;5004311;28;20474;-74
2023/10/29 09:39:01;;;;;;;11.70;2.30;;;;;;;13.86;87.08;99321.66;5001026;28;20026;-71
2023/10/29 09:41:26;;;;;;;8.32;1.33;;;;;;;13.96;86.04;99320.47;5001250;28;20069;-71
2023/10/29 09:43:53;;;;;;;7.63;1.75;;;;;;;14.04;86.98;99336.03;5004653;28;20030;-71
2023/10/29 09:46:21;;;;;;;5.68;1.17;;;;;;;14.02;86.75;99338.06;5004477;28;20046;-73
2023/10/29 09:48:46;;;;;;;10.88;1.40;;;;;;;13.97;85.73;99315.84;4993562;28;20034;-71
2023/10/29 09:51:12;;;;;;;7.75;1.30;;;;;;;14.02;88.15;99322.50;5027039;28;20560;-71
2023/10/29 09:53:38;;;;;;;6.10;1.10;;;;;;;14.06;85.18;99324.91;4998302;28;20038;-70
2023/10/29 09:56:12;;;;;;;8.80;1.80;;;;;;;14.03;85.09;99332.44;4993847;28;20034;-71
2023/10/29 09:58:38;;;;;;;6.65;1.60;;;;;;;14.02;85.67;99341.66;5000229;28;20049;-70
2023/10/29 10:01:04;;;;;;;7.03;1.77;;;;;;;13.97;85.24;99319.44;4994618;28;20041;-71
2023/10/29 10:03:30;;;;;;;5.53;1.23;;;;;;;13.97;86.26;99310.38;4996797;28;20046;-73
2023/10/29 10:05:57;;;;;;;12.13;1.98;;;;;;;13.95;84.10;99301.50;4988696;28;20515;-70
2023/10/29 10:08:30;;;;;;;7.00;1.13;;;;;;;13.94;84.68;99307.97;4987498;28;20034;-70
2023/10/29 10:10:57;;;;;;;5.32;1.40;;;;;;;13.94;83.88;99305.25;4998957;28;20129;-71
2023/10/29 10:13:39;;;;;;;5.47;1.30;;;;;;;13.93;84.76;99303.53;5003918;28;20037;-71
2023/10/29 10:16:08;;;;;;;8.77;1.25;;;;;;;13.88;83.61;99315.00;4992681;28;20048;-71
2023/10/29 10:18:47;;;;;;;11.13;1.35;;;;;;;13.83;84.70;99306.44;5005273;28;20030;-74
2023/10/29 10:21:13;;;;;;;6.93;1.52;;;;;;;13.77;83.47;99293.47;5001518;28;20058;-71
2023/10/29 10:23:53;;;;;;;7.68;1.35;;;;;;;13.75;86.11;99290.03;4996883;28;20489;-70
2023/10/29 10:26:27;;;;;;;7.32;1.17;;;;;;;13.74;85.33;99296.53;5006802;28;20477;-71
2023/10/29 10:28:58;;;;;;;8.60;1.55;;;;;;;13.76;84.47;99289.88;5007068;28;20058;-71
2023/10/29 10:31:27;;;;;;;11.05;1.73;;;;;;;13.83;85.96;99303.72;5008113;28;20042;-70
2023/10/29 10:34:15;;;;;;;8.15;1.58;;;;;;;13.89;85.39;99302.16;5001488;28;20109;-72
2023/10/29 10:36:44;;;;;;;5.95;1.00;;;;;;;13.94;83.73;99310.72;5005827;28;20127;-71
2023/10/29 10:39:13;;;;;;;10.43;1.38;;;;;;;14.00;85.15;99310.91;5006194;28;20494;-71
2023/10/29 10:41:43;;;;;;;6.70;1.48;;;;;;;14.10;86.45;99315.34;5007194;28;20460;-71
2023/10/29 10:44:13;;;;;;;10.48;2.33;;;;;;;14.17;84.14;99317.19;5036742;28;20053;-70
2023/10/29 10:46:49;;;;;;;6.25;1.08;;;;;;;14.21;83.12;99336.88;4998673;28;20691;-71
2023/10/29 10:49:15;;;;;;;5.75;1.13;;;;;;;14.20;84.17;99343.38;4992106;28;20058;-71
2023/10/29 10:51:41;;;;;;;6.05;1.35;;;;;;;14.18;85.55;99338.09;4998318;28;20033;-71
2023/10/29 10:54:07;;;;;;;10.93;1.55;;;;;;;14.14;83.99;99341.34;4994142;28;20046;-70
2023/10/29 10:56:37;;;;;;;9.38;2.28;;;;;;;14.07;84.09;99340.28;4996665;28;20053;-70
2023/10/29 10:59:07;;;;;;;8.70;1.58;;;;;;;14.03;85.33;99339.78;4989038;28;20038;-71
2023/10/29 11:01:35;;;;;;;8.15;2.03;;;;;;;14.00;86.22;99327.31;5029559;28;20048;-71
2023/10/29 11:04:03;;;;;;;11.50;1.27;;;;;;;13.95;83.93;99324.22;5023681;28;20073;-72
2023/10/29 11:06:28;;;;;;;9.80;1.38;;;;;;;13.89;85.20;99326.78;4992755;28;20050;-71
2023/10/29 11:08:55;;;;;;;7.10;1.30;;;;;;;13.82;86.08;99317.56;5021239;28;20569;-70
2023/10/29 11:11:23;;;;;;;11.02;1.40;;;;;;;13.80;86.58;99325.91;4997845;28;20125;-71
2023/10/29 11:13:50;;;;;;;9.20;1.55;;;;;;;13.74;86.72;99321.97;4987735;28;20046;-70
2023/10/29 11:16:25;;;;;;;8.95;1.30;;;;;;;13.68;85.24;99319.09;4996021;28;20030;-70
2023/10/29 11:18:50;;;;;;;5.35;1.95;;;;;;;13.63;87.63;99307.81;4999354;28;20053;-70
2023/10/29 11:21:32;;;;;;;7.03;1.42;;;;;;;13.61;87.43;99297.03;5004942;28;20030;-70